createdAt,value
2019-05-07T00:01:46.480Z,3.27
2019-05-07T00:04:15.751Z,3.60
2019-05-07T00:06:44.840Z,3.00
2019-05-07T00:09:14.016Z,3.00
2019-05-07T00:11:43.192Z,2.70
2019-05-07T00:14:12.670Z,2.67
2019-05-07T00:16:42.336Z,2.70
2019-05-07T00:19:12.916Z,2.50
2019-05-07T00:21:42.508Z,2.27
2019-05-07T00:24:13.172Z,2.30
2019-05-07T00:26:43.173Z,2.60
2019-05-07T00:29:13.044Z,2.20
2019-05-07T00:31:42.331Z,2.83
2019-05-07T00:34:12.624Z,2.60
2019-05-07T00:36:47.347Z,2.33
2019-05-07T00:39:37.096Z,2.83
2019-05-07T00:42:12.997Z,2.93
2019-05-07T00:45:15.914Z,2.80
2019-05-07T00:47:32.965Z,2.40
2019-05-07T00:50:06.725Z,3.27
2019-05-07T00:52:35.841Z,2.90
2019-05-07T00:55:05.161Z,3.13
2019-05-07T00:57:34.235Z,2.77
2019-05-07T01:00:03.996Z,2.57
2019-05-07T01:02:33.088Z,2.70
2019-05-07T01:05:02.986Z,3.10
2019-05-07T01:07:32.623Z,2.53
2019-05-07T01:10:02.328Z,3.07
2019-05-07T01:12:32.824Z,3.00
2019-05-07T01:15:02.885Z,3.50
2019-05-07T01:17:33.628Z,3.40
2019-05-07T01:20:03.056Z,2.83
2019-05-07T01:22:33.135Z,2.37
2019-05-07T01:25:05.025Z,3.10
2019-05-07T01:27:34.682Z,2.90
2019-05-07T01:30:05.053Z,2.80
2019-05-07T01:32:44.827Z,2.67
2019-05-07T01:35:23.137Z,3.50
2019-05-07T01:37:52.796Z,2.87
2019-05-07T01:40:22.887Z,2.50
2019-05-07T01:42:53.043Z,3.10
2019-05-07T01:45:24.932Z,2.77
2019-05-07T01:47:54.244Z,2.97
2019-05-07T01:50:23.920Z,3.07
2019-05-07T01:52:53.545Z,3.33
2019-05-07T01:55:23.161Z,3.50
2019-05-07T01:57:52.762Z,3.10
2019-05-07T02:00:22.592Z,2.93
2019-05-07T02:03:02.697Z,2.63
2019-05-07T02:05:45.365Z,2.97
2019-05-07T02:08:21.986Z,2.30
2019-05-07T02:10:59.448Z,2.93
2019-05-07T02:13:29.040Z,2.60
2019-05-07T02:16:01.884Z,3.13
2019-05-07T02:18:29.965Z,2.50
2019-05-07T02:21:00.132Z,2.70
2019-05-07T02:23:29.810Z,3.30
2019-05-07T02:25:59.437Z,2.77
2019-05-07T02:28:29.049Z,2.33
2019-05-07T02:30:58.660Z,2.83
2019-05-07T02:33:28.416Z,2.70
2019-05-07T02:35:58.306Z,2.30
2019-05-07T02:38:37.153Z,2.90
2019-05-07T02:41:14.190Z,2.80
2019-05-07T02:43:43.075Z,2.50
2019-05-07T02:46:37.977Z,2.40
2019-05-07T02:49:25.389Z,2.70
2019-05-07T02:52:00.270Z,3.10
2019-05-07T02:54:47.921Z,3.57
2019-05-07T02:57:17.521Z,2.70
2019-05-07T02:59:47.145Z,3.03
2019-05-07T03:02:16.761Z,2.77
2019-05-07T03:04:46.518Z,3.53
2019-05-07T03:07:16.143Z,2.83
2019-05-07T03:09:45.766Z,3.40
2019-05-07T03:12:15.461Z,2.80
2019-05-07T03:14:45.057Z,3.27
2019-05-07T03:17:14.654Z,3.77
2019-05-07T03:19:46.138Z,3.13
2019-05-07T03:22:16.805Z,2.93
2019-05-07T03:24:57.605Z,3.13
2019-05-07T03:27:27.205Z,2.97
2019-05-07T03:30:04.263Z,3.60
2019-05-07T03:32:47.708Z,3.13
2019-05-07T03:35:36.345Z,2.90
2019-05-07T03:38:03.558Z,3.03
2019-05-07T03:40:34.938Z,2.90
2019-05-07T03:43:05.963Z,2.70
2019-05-07T03:45:43.213Z,2.47
2019-05-07T03:48:15.054Z,2.83
2019-05-07T03:50:44.861Z,2.97
2019-05-07T03:53:14.781Z,2.80
2019-05-07T03:55:44.950Z,2.57
2019-05-07T03:58:15.037Z,3.30
2019-05-07T04:00:45.549Z,3.00
2019-05-07T04:03:19.227Z,3.00
2019-05-07T04:05:46.493Z,3.30
2019-05-07T04:08:16.089Z,3.40
2019-05-07T04:10:46.665Z,3.30
2019-05-07T04:13:16.248Z,3.63
2019-05-07T04:15:45.868Z,3.00
2019-05-07T04:18:15.489Z,3.40
2019-05-07T04:20:45.098Z,3.70
2019-05-07T04:23:14.702Z,3.33
2019-05-07T04:25:59.483Z,4.43
2019-05-07T04:28:59.150Z,3.30
2019-05-07T04:31:34.229Z,3.30
2019-05-07T04:34:06.813Z,3.40
2019-05-07T04:36:43.281Z,4.00
2019-05-07T04:39:13.290Z,4.17
2019-05-07T04:41:43.623Z,3.23
2019-05-07T04:44:14.269Z,4.10
2019-05-07T04:46:47.980Z,3.47
2019-05-07T04:49:15.733Z,4.63
2019-05-07T04:51:52.926Z,3.50
2019-05-07T04:54:23.681Z,4.10
2019-05-07T04:56:53.574Z,4.10
2019-05-07T04:59:23.710Z,3.50
2019-05-07T05:02:00.131Z,4.67
2019-05-07T05:04:33.975Z,3.67
2019-05-07T05:07:02.608Z,4.00
2019-05-07T05:09:33.155Z,3.10
2019-05-07T05:12:03.011Z,3.67
2019-05-07T05:14:33.837Z,3.30
2019-05-07T05:17:04.238Z,4.10
2019-05-07T05:19:33.848Z,3.23
2019-05-07T05:22:24.964Z,4.13
2019-05-07T05:25:12.133Z,3.30
2019-05-07T05:27:42.944Z,3.70
2019-05-07T05:30:16.284Z,3.47
2019-05-07T05:32:45.900Z,3.63
2019-05-07T05:35:15.681Z,3.27
2019-05-07T05:37:45.292Z,3.50
2019-05-07T05:40:15.286Z,3.93
2019-05-07T05:42:52.488Z,4.30
2019-05-07T05:45:37.668Z,2.97
2019-05-07T05:48:08.637Z,3.47
2019-05-07T05:51:11.832Z,3.10
2019-05-07T05:53:55.011Z,3.43
2019-05-07T05:56:39.844Z,3.17
2019-05-07T05:59:25.416Z,3.00
2019-05-07T06:02:08.941Z,3.07
2019-05-07T06:04:45.938Z,4.57
2019-05-07T06:07:37.877Z,3.17
2019-05-07T06:10:26.078Z,4.10
2019-05-07T06:13:16.657Z,2.63
2019-05-07T06:15:57.508Z,3.30
2019-05-07T06:18:43.305Z,3.50
2019-05-07T06:21:26.059Z,2.63
2019-05-07T06:23:58.393Z,3.40
2019-05-07T06:26:28.069Z,3.17
2019-05-07T06:28:57.682Z,3.43
2019-05-07T06:31:27.381Z,2.57
2019-05-07T06:33:57.073Z,3.07
2019-05-07T06:36:27.301Z,3.33
2019-05-07T06:39:03.149Z,2.30
2019-05-07T06:42:08.360Z,1.97
2019-05-07T06:44:39.149Z,2.83
2019-05-07T06:47:09.028Z,3.30
2019-05-07T06:49:38.988Z,3.57
2019-05-07T06:52:08.629Z,2.80
2019-05-07T06:54:38.245Z,2.57
2019-05-07T06:57:07.872Z,3.53
2019-05-07T06:59:42.882Z,2.93
2019-05-07T07:02:32.738Z,2.70
2019-05-07T07:05:06.872Z,2.37
2019-05-07T07:07:48.024Z,2.60
2019-05-07T07:10:39.692Z,2.67
2019-05-07T07:13:11.850Z,2.37
2019-05-07T07:15:42.603Z,2.60
2019-05-07T07:18:12.253Z,2.50
2019-05-07T07:20:43.042Z,3.00
2019-05-07T07:23:12.360Z,2.67
2019-05-07T07:25:43.011Z,2.60
2019-05-07T07:28:12.476Z,2.50
2019-05-07T07:31:02.321Z,2.70
2019-05-07T07:33:35.409Z,2.60
2019-05-07T07:36:04.531Z,2.97
2019-05-07T07:38:34.176Z,3.20
2019-05-07T07:41:22.190Z,3.00
2019-05-07T07:43:52.565Z,2.30
2019-05-07T07:46:22.311Z,2.47
2019-05-07T07:49:04.504Z,2.83
2019-05-07T07:51:36.622Z,2.50
2019-05-07T07:53:53.077Z,2.50
2019-05-07T07:56:49.991Z,1.80
2019-05-07T07:59:41.990Z,2.33
2019-05-07T08:02:29.284Z,2.33
2019-05-07T08:04:58.382Z,2.10
2019-05-07T08:07:27.463Z,2.50
2019-05-07T08:09:56.642Z,1.97
2019-05-07T08:12:26.026Z,2.60
2019-05-07T08:15:13.019Z,2.10
2019-05-07T08:17:25.992Z,3.83
2019-05-07T08:19:55.077Z,3.10
2019-05-07T08:22:24.179Z,2.17
2019-05-07T08:24:53.284Z,3.00
2019-05-07T08:27:22.457Z,2.30
2019-05-07T08:29:52.506Z,2.70
2019-05-07T08:32:46.886Z,3.57
2019-05-07T08:35:32.728Z,2.13
2019-05-07T08:38:02.366Z,2.50
2019-05-07T08:40:32.536Z,1.93
2019-05-07T08:43:03.228Z,2.40
2019-05-07T08:45:52.385Z,2.20
2019-05-07T08:48:35.244Z,2.40
2019-05-07T08:51:04.413Z,1.97
2019-05-07T08:53:33.502Z,2.40
2019-05-07T08:56:03.286Z,3.00
2019-05-07T08:58:32.543Z,1.83
2019-05-07T09:01:03.110Z,1.93
2019-05-07T09:03:44.867Z,1.97
2019-05-07T09:06:15.061Z,2.03
2019-05-07T09:08:44.176Z,2.00
2019-05-07T09:11:13.495Z,2.17
2019-05-07T09:13:42.768Z,2.10
2019-05-07T09:16:12.967Z,2.00
2019-05-07T09:18:42.379Z,1.70
2019-05-07T09:21:12.533Z,2.30
2019-05-07T09:23:42.521Z,1.93
2019-05-07T09:26:14.661Z,2.10
2019-05-07T09:28:57.184Z,2.13
2019-05-07T09:31:57.966Z,2.00
2019-05-07T09:34:28.686Z,2.43
2019-05-07T09:36:59.607Z,1.93
2019-05-07T09:39:28.757Z,2.13
2019-05-07T09:41:58.262Z,2.07
2019-05-07T09:44:27.476Z,2.13
2019-05-07T09:46:56.637Z,1.93
2019-05-07T09:49:25.784Z,2.47
2019-05-07T09:51:55.003Z,2.10
2019-05-07T09:54:25.187Z,1.63
2019-05-07T09:56:54.296Z,2.10
2019-05-07T09:59:23.576Z,1.47
2019-05-07T10:01:52.732Z,2.03
2019-05-07T10:04:22.481Z,1.90
2019-05-07T10:06:51.952Z,1.83
2019-05-07T10:09:22.311Z,1.73
2019-05-07T10:12:02.758Z,2.50
2019-05-07T10:14:33.076Z,2.00
2019-05-07T10:17:11.957Z,1.53
2019-05-07T10:19:41.728Z,2.03
2019-05-07T10:22:12.576Z,1.80
2019-05-07T10:24:42.034Z,2.10
2019-05-07T10:27:12.646Z,1.73
2019-05-07T10:29:42.767Z,1.87
2019-05-07T10:32:12.849Z,1.80
2019-05-07T10:34:42.312Z,1.80
2019-05-07T10:37:12.125Z,1.93
2019-05-07T10:39:42.999Z,2.27
2019-05-07T10:42:12.468Z,2.20
2019-05-07T10:44:48.067Z,2.20
2019-05-07T10:47:38.840Z,2.00
2019-05-07T10:50:33.135Z,2.50
2019-05-07T10:52:52.807Z,2.67
2019-05-07T10:55:22.586Z,2.37
2019-05-07T10:57:52.862Z,2.33
2019-05-07T11:00:24.054Z,1.90
2019-05-07T11:02:53.310Z,1.87
2019-05-07T11:05:22.580Z,1.97
2019-05-07T11:07:53.719Z,1.50
2019-05-07T11:10:22.565Z,2.23
2019-05-07T11:12:51.830Z,1.90
2019-05-07T11:15:22.018Z,1.87
2019-05-07T11:18:04.268Z,2.03
2019-05-07T11:20:46.093Z,2.10
2019-05-07T11:23:04.458Z,1.27
2019-05-07T11:25:33.602Z,2.53
2019-05-07T11:28:02.935Z,1.40
2019-05-07T11:30:32.295Z,1.50
2019-05-07T11:33:02.716Z,1.43
2019-05-07T11:35:32.149Z,2.23
2019-05-07T11:38:11.029Z,2.40
2019-05-07T11:40:34.895Z,2.20
2019-05-07T11:43:18.664Z,2.70
2019-05-07T11:45:58.448Z,2.40
2019-05-07T11:48:26.978Z,2.20
2019-05-07T11:51:04.105Z,1.80
2019-05-07T11:53:32.721Z,1.70
2019-05-07T11:56:02.551Z,1.47
2019-05-07T11:58:32.477Z,1.40
2019-05-07T12:01:12.311Z,1.97
2019-05-07T12:03:42.905Z,2.70
2019-05-07T12:06:13.529Z,2.00
2019-05-07T12:08:49.791Z,1.50
2019-05-07T12:11:13.444Z,1.70
2019-05-07T12:13:42.829Z,1.90
2019-05-07T12:16:14.112Z,1.73
2019-05-07T12:18:43.159Z,1.60
2019-05-07T12:21:20.777Z,1.30
2019-05-07T12:23:43.269Z,1.50
2019-05-07T12:26:12.688Z,2.33
2019-05-07T12:28:42.074Z,1.70
2019-05-07T12:31:29.180Z,1.80
2019-05-07T12:34:11.814Z,1.70
2019-05-07T12:36:41.078Z,1.80
2019-05-07T12:39:12.551Z,1.63
2019-05-07T12:41:42.007Z,1.60
2019-05-07T12:44:12.981Z,1.80
2019-05-07T12:46:42.480Z,1.80
2019-05-07T12:49:12.108Z,1.50
2019-05-07T12:51:48.898Z,1.80
2019-05-07T12:54:27.142Z,2.00
2019-05-07T12:56:56.469Z,1.50
2019-05-07T12:59:25.578Z,1.70
2019-05-07T13:02:26.653Z,1.63
2019-05-07T13:04:47.335Z,1.83
2019-05-07T13:07:34.928Z,1.70
2019-05-07T13:10:04.472Z,1.60
2019-05-07T13:12:33.940Z,1.90
2019-05-07T13:15:03.129Z,1.60
2019-05-07T13:17:33.778Z,1.50
2019-05-07T13:20:03.645Z,1.60
2019-05-07T13:22:32.919Z,1.60
2019-05-07T13:25:02.243Z,1.70
2019-05-07T13:27:32.028Z,2.17
2019-05-07T13:30:02.568Z,1.80
2019-05-07T13:32:34.906Z,1.90
2019-05-07T13:35:04.626Z,2.83
2019-05-07T13:37:36.577Z,1.50
2019-05-07T13:40:17.935Z,2.20
2019-05-07T13:42:54.123Z,1.97
2019-05-07T13:45:49.201Z,1.70
2019-05-07T13:48:22.376Z,2.13
2019-05-07T13:50:51.719Z,1.50
2019-05-07T13:53:22.814Z,1.97
2019-05-07T13:55:52.160Z,1.90
2019-05-07T13:58:22.980Z,1.53
2019-05-07T14:01:04.904Z,1.80
2019-05-07T14:03:33.727Z,2.20
2019-05-07T14:06:04.564Z,1.50
2019-05-07T14:08:37.893Z,1.40
2019-05-07T14:11:07.165Z,1.87
2019-05-07T14:13:37.240Z,1.67
2019-05-07T14:16:07.677Z,2.23
2019-05-07T14:18:37.879Z,1.87
2019-05-07T14:21:07.179Z,1.90
2019-05-07T14:23:36.464Z,2.33
2019-05-07T14:26:06.686Z,1.90
2019-05-07T14:28:35.780Z,1.80
2019-05-07T14:31:04.963Z,1.67
2019-05-07T14:33:48.693Z,2.07
2019-05-07T14:36:22.382Z,2.00
2019-05-07T14:38:52.079Z,2.13
2019-05-07T14:41:25.283Z,1.87
2019-05-07T14:43:58.249Z,2.13
2019-05-07T14:46:35.038Z,2.07
2019-05-07T14:48:58.445Z,2.63
2019-05-07T14:51:27.618Z,2.00
2019-05-07T14:53:56.805Z,2.10
2019-05-07T14:56:26.100Z,1.70
2019-05-07T14:58:55.541Z,3.50
2019-05-07T15:01:24.945Z,2.10
2019-05-07T15:03:54.079Z,1.93
2019-05-07T15:06:23.257Z,2.23
2019-05-07T15:08:52.533Z,2.20
2019-05-07T15:11:21.745Z,2.10
2019-05-07T15:13:52.218Z,2.20
2019-05-07T15:16:22.549Z,1.83
2019-05-07T15:18:56.393Z,2.00
2019-05-07T15:21:25.601Z,2.20
2019-05-07T15:23:55.968Z,1.57
2019-05-07T15:26:25.153Z,1.60
2019-05-07T15:29:02.899Z,2.50
2019-05-07T15:31:51.722Z,2.03
2019-05-07T15:34:22.156Z,2.00
2019-05-07T15:36:52.719Z,2.10
2019-05-07T15:39:22.329Z,1.80
2019-05-07T15:41:51.829Z,2.30
2019-05-07T15:44:21.114Z,1.53
2019-05-07T15:46:51.979Z,1.70
2019-05-07T15:49:21.650Z,1.83
2019-05-07T15:51:53.171Z,2.40
2019-05-07T15:54:22.422Z,2.00
2019-05-07T15:56:54.030Z,2.60
2019-05-07T15:59:23.237Z,1.80
2019-05-07T16:01:58.500Z,2.90
2019-05-07T16:04:27.639Z,2.27
2019-05-07T16:06:58.633Z,2.33
2019-05-07T16:09:29.765Z,2.23
2019-05-07T16:11:59.256Z,9.97
2019-05-07T16:14:28.565Z,4.17
2019-05-07T16:17:06.940Z,1.70
2019-05-07T16:19:36.048Z,2.60
2019-05-07T16:22:09.228Z,2.17
2019-05-07T16:24:38.320Z,1.83
2019-05-07T16:27:07.450Z,2.80
2019-05-07T16:29:36.648Z,2.07
2019-05-07T16:32:05.816Z,2.37
2019-05-07T16:34:35.199Z,2.17
2019-05-07T16:37:07.305Z,1.87
2019-05-07T16:39:35.196Z,2.70
2019-05-07T16:42:04.317Z,2.10
2019-05-07T16:44:33.497Z,2.33
2019-05-07T16:47:02.902Z,1.97
2019-05-07T16:49:32.212Z,2.20
2019-05-07T16:52:01.838Z,2.27
2019-05-07T16:54:31.239Z,3.77
2019-05-07T16:57:34.941Z,2.10
2019-05-07T17:00:05.864Z,2.47
2019-05-07T17:02:41.684Z,2.40
2019-05-07T17:05:12.928Z,2.37
2019-05-07T17:07:53.710Z,1.83
2019-05-07T17:10:22.807Z,2.03
2019-05-07T17:12:52.462Z,2.10
2019-05-07T17:15:23.260Z,2.27
2019-05-07T17:17:58.895Z,2.00
2019-05-07T17:20:28.104Z,2.20
2019-05-07T17:22:57.265Z,2.10
2019-05-07T17:25:38.779Z,7.00
2019-05-07T17:28:08.402Z,4.67
2019-05-07T17:30:38.133Z,2.20
2019-05-07T17:33:07.372Z,2.33
2019-05-07T17:35:36.525Z,2.23
2019-05-07T17:38:09.523Z,2.20
2019-05-07T17:40:36.696Z,2.10
2019-05-07T17:43:05.836Z,1.83
2019-05-07T17:45:35.056Z,1.87
2019-05-07T17:48:04.308Z,2.33
2019-05-07T17:50:39.356Z,2.37
2019-05-07T17:53:08.528Z,1.90
2019-05-07T17:55:37.689Z,1.90
2019-05-07T17:58:06.832Z,2.40
2019-05-07T18:00:36.107Z,2.10
2019-05-07T18:03:32.284Z,2.10
2019-05-07T18:06:03.835Z,2.13
2019-05-07T18:08:33.036Z,2.23
2019-05-07T18:11:02.554Z,1.60
2019-05-07T18:13:32.504Z,2.13
2019-05-07T18:16:12.111Z,2.27
2019-05-07T18:18:43.198Z,2.40
2019-05-07T18:21:12.711Z,2.50
2019-05-07T18:23:42.048Z,2.00
2019-05-07T18:26:16.432Z,2.57
2019-05-07T18:28:41.953Z,2.20
2019-05-07T18:31:12.633Z,1.97
2019-05-07T18:33:49.584Z,1.93
2019-05-07T18:36:18.737Z,3.33
2019-05-07T18:38:47.848Z,2.80
2019-05-07T18:41:16.962Z,4.83
2019-05-07T18:43:46.075Z,2.87
2019-05-07T18:46:15.237Z,3.00
2019-05-07T18:48:44.356Z,2.50
2019-05-07T18:51:13.464Z,2.60
2019-05-07T18:53:42.672Z,3.67
2019-05-07T18:56:12.679Z,2.90
2019-05-07T18:58:42.633Z,3.70
2019-05-07T19:01:12.817Z,3.67
2019-05-07T19:03:42.347Z,3.27
2019-05-07T19:06:13.452Z,2.60
2019-05-07T19:08:42.443Z,3.03
2019-05-07T19:11:12.349Z,3.50
2019-05-07T19:13:42.137Z,2.90
2019-05-07T19:16:12.439Z,3.07
2019-05-07T19:18:43.041Z,4.50
2019-05-07T19:21:12.387Z,4.50
2019-05-07T19:23:42.370Z,3.97
2019-05-07T19:26:13.089Z,3.63
2019-05-07T19:28:42.548Z,3.73
2019-05-07T19:31:12.487Z,3.00
2019-05-07T19:34:07.309Z,4.50
2019-05-07T19:36:36.440Z,3.90
2019-05-07T19:39:05.956Z,3.63
2019-05-07T19:41:36.672Z,4.20
2019-05-07T19:44:05.861Z,6.10
2019-05-07T19:46:34.976Z,4.50
2019-05-07T19:49:07.047Z,4.27
2019-05-07T19:51:35.197Z,4.77
2019-05-07T19:54:04.393Z,4.00
2019-05-07T19:56:33.798Z,4.70
2019-05-07T19:59:03.196Z,5.30
2019-05-07T20:01:37.812Z,4.83
2019-05-07T20:04:06.919Z,5.13
2019-05-07T20:06:36.088Z,5.37
2019-05-07T20:09:12.145Z,7.17
2019-05-07T20:11:46.026Z,6.23
2019-05-07T20:14:15.200Z,7.40
2019-05-07T20:16:44.380Z,5.57
2019-05-07T20:19:13.541Z,7.93
2019-05-07T20:21:42.797Z,6.87
2019-05-07T20:24:12.483Z,5.60
2019-05-07T20:26:43.090Z,4.97
2019-05-07T20:29:12.530Z,4.17
2019-05-07T20:31:42.347Z,4.30
2019-05-07T20:34:13.069Z,4.10
2019-05-07T20:36:42.907Z,3.43
2019-05-07T20:39:12.909Z,3.67
2019-05-07T20:41:42.911Z,3.77
2019-05-07T20:44:12.401Z,3.87
2019-05-07T20:46:42.166Z,3.50
2019-05-07T20:49:13.176Z,2.80
2019-05-07T20:51:42.507Z,3.30
2019-05-07T20:54:32.448Z,3.10
2019-05-07T20:57:13.193Z,3.37
2019-05-07T20:59:42.559Z,3.30
2019-05-07T21:02:11.976Z,2.37
2019-05-07T21:04:42.480Z,3.00
2019-05-07T21:07:12.066Z,3.43
2019-05-07T21:09:42.230Z,2.83
2019-05-07T21:12:12.877Z,3.03
2019-05-07T21:14:42.114Z,3.20
2019-05-07T21:17:11.963Z,2.70
2019-05-07T21:19:42.846Z,2.57
2019-05-07T21:22:13.028Z,2.80
2019-05-07T21:24:42.433Z,2.50
2019-05-07T21:27:12.180Z,2.80
2019-05-07T21:29:42.284Z,2.63
2019-05-07T21:32:12.381Z,2.73
2019-05-07T21:34:42.249Z,2.33
2019-05-07T21:37:12.546Z,2.53
2019-05-07T21:39:42.479Z,2.73
2019-05-07T21:42:13.971Z,2.57
2019-05-07T21:44:42.990Z,2.80
2019-05-07T21:47:12.730Z,3.10
2019-05-07T21:49:43.033Z,2.70
2019-05-07T21:52:12.795Z,2.30
2019-05-07T21:54:49.096Z,2.30
2019-05-07T21:57:36.257Z,2.37
2019-05-07T22:00:28.840Z,3.20
2019-05-07T22:03:01.948Z,2.90
2019-05-07T22:05:31.348Z,2.67
2019-05-07T22:08:01.792Z,3.13
2019-05-07T22:10:32.956Z,3.00
2019-05-07T22:13:03.278Z,2.40
2019-05-07T22:15:32.519Z,2.80
2019-05-07T22:18:02.714Z,3.07
2019-05-07T22:20:32.051Z,2.93
2019-05-07T22:23:02.826Z,2.50
2019-05-07T22:25:32.842Z,3.10
2019-05-07T22:28:04.828Z,2.70
2019-05-07T22:30:44.961Z,3.27
2019-05-07T22:33:22.375Z,3.13
2019-05-07T22:35:52.275Z,3.00
2019-05-07T22:38:28.891Z,3.07
2019-05-07T22:41:02.045Z,2.73
2019-05-07T22:43:31.927Z,3.53
2019-05-07T22:46:01.384Z,3.50
2019-05-07T22:48:32.443Z,2.90
2019-05-07T22:51:02.703Z,3.00
2019-05-07T22:53:32.811Z,3.70
2019-05-07T22:56:03.177Z,3.00
2019-05-07T22:58:39.048Z,3.97
2019-05-07T23:01:09.832Z,3.67
2019-05-07T23:03:38.938Z,3.40
2019-05-07T23:06:08.117Z,3.20
2019-05-07T23:08:37.738Z,3.20
2019-05-07T23:11:06.980Z,3.13
2019-05-07T23:13:36.285Z,3.00
2019-05-07T23:16:05.797Z,3.20
2019-05-07T23:18:34.941Z,3.20
2019-05-07T23:21:04.046Z,3.00
2019-05-07T23:23:33.182Z,3.10
2019-05-07T23:26:02.893Z,3.00
2019-05-07T23:28:32.397Z,3.00
2019-05-07T23:31:02.576Z,3.37
2019-05-07T23:33:32.256Z,2.80
2019-05-07T23:36:02.196Z,3.50
2019-05-07T23:38:32.032Z,3.43
2019-05-07T23:41:22.325Z,3.37
2019-05-07T23:44:12.500Z,3.03
2019-05-07T23:46:44.435Z,3.57
2019-05-07T23:49:12.561Z,3.10
2019-05-07T23:51:42.231Z,3.40
2019-05-07T23:54:12.199Z,3.40
2019-05-07T23:56:42.762Z,2.97
2019-05-07T23:59:12.702Z,3.27
